Time;durP1;ratioP1;P1;durP2;ratioP2;P2;SDS_P1;SDS_P2;PMS_P1;PMS_P2;Temp;Humidity;BMP_temperature;BMP_pressure;BME280_temperature;BME280_humidity;BME280_pressure;Samples;Min_cycle;Max_cycle;Signal;HPM_P1;HPM_P2
2023/05/16 00:02:24;;;;;;;17.30;7.45;;;;;;;13.78;78.08;99838.34;5024772;28;20557;-80
2023/05/16 00:04:50;;;;;;;14.73;7.93;;;;;;;13.55;77.58;99843.41;5024838;28;20039;-80
2023/05/16 00:07:16;;;;;;;13.90;7.68;;;;;;;13.53;78.24;99853.81;5025050;28;20041;-80
2023/05/16 00:09:41;;;;;;;14.70;8.30;;;;;;;13.67;78.60;99853.22;5024466;28;20037;-81
2023/05/16 00:12:07;;;;;;;14.13;7.35;;;;;;;13.27;78.92;99854.78;5024614;28;20056;-80
2023/05/16 00:14:34;;;;;;;14.73;7.47;;;;;;;13.35;79.15;99850.63;5024523;28;20038;-80
2023/05/16 00:16:59;;;;;;;22.25;7.68;;;;;;;13.13;78.54;99846.34;5024179;28;20170;-80
2023/05/16 00:19:26;;;;;;;14.38;7.82;;;;;;;13.35;78.40;99864.31;5023799;28;20029;-80
2023/05/16 00:21:51;;;;;;;14.10;6.72;;;;;;;13.18;79.23;99864.69;5024413;28;20076;-80
2023/05/16 00:24:17;;;;;;;11.38;6.15;;;;;;;13.31;79.43;99869.53;5023306;28;20041;-80
2023/05/16 00:26:42;;;;;;;14.50;8.00;;;;;;;13.39;77.62;99868.13;5024230;28;20068;-80
2023/05/16 00:29:07;;;;;;;12.63;6.80;;;;;;;13.46;78.03;99876.03;5023629;28;20044;-80
2023/05/16 00:31:33;;;;;;;15.30;7.35;;;;;;;13.42;78.17;99867.56;5024075;28;20037;-79
2023/05/16 00:33:58;;;;;;;15.20;6.50;;;;;;;13.51;78.08;99867.78;5024179;28;20040;-80
2023/05/16 00:36:24;;;;;;;12.05;7.22;;;;;;;13.55;77.41;99868.06;5024179;28;20029;-80
2023/05/16 00:38:49;;;;;;;10.57;5.00;;;;;;;13.58;77.04;99875.75;5023461;28;20029;-80
2023/05/16 00:41:16;;;;;;;10.38;5.45;;;;;;;13.56;76.70;99864.25;5023873;28;20033;-80
2023/05/16 00:43:41;;;;;;;9.35;4.72;;;;;;;13.09;77.25;99875.38;5024352;28;20080;-80
2023/05/16 00:46:06;;;;;;;9.07;4.68;;;;;;;13.14;77.43;99880.81;5023934;28;20514;-80
2023/05/16 00:48:32;;;;;;;10.73;5.22;;;;;;;13.25;77.15;99883.50;5023594;28;20453;-80
2023/05/16 00:50:58;;;;;;;9.32;4.07;;;;;;;12.73;78.58;99882.56;5023485;28;20033;-79
2023/05/16 00:53:24;;;;;;;8.20;3.78;;;;;;;13.01;77.64;99886.88;5023677;28;20415;-79
2023/05/16 00:55:50;;;;;;;11.13;5.13;;;;;;;13.07;77.45;99883.88;5023830;28;20029;-80
2023/05/16 00:58:16;;;;;;;7.50;3.72;;;;;;;13.00;77.60;99877.84;5023182;28;20605;-80
2023/05/16 01:00:43;;;;;;;8.73;4.10;;;;;;;12.88;78.35;99874.59;5023476;28;20036;-79
2023/05/16 01:03:08;;;;;;;9.45;4.00;;;;;;;13.03;78.08;99873.75;5023583;28;20107;-80
2023/05/16 01:05:34;;;;;;;9.03;4.60;;;;;;;13.20;77.39;99878.88;5024001;28;20527;-80
2023/05/16 01:07:59;;;;;;;14.02;5.07;;;;;;;13.16;77.27;99878.63;5023316;28;20286;-79
2023/05/16 01:10:31;;;;;;;8.13;3.57;;;;;;;12.85;77.62;99886.94;5023334;28;20037;-80
2023/05/16 01:13:36;;;;;;;6.97;3.95;;;;;;;12.65;78.63;99885.84;5023175;28;20348;-80
2023/05/16 01:16:15;;;;;;;7.85;4.20;;;;;;;12.83;78.65;99889.13;5020686;28;20080;-80
2023/05/16 01:18:49;;;;;;;9.07;4.32;;;;;;;12.81;78.31;99886.66;5022902;28;20108;-80
2023/05/16 01:21:24;;;;;;;9.73;3.72;;;;;;;12.89;78.62;99885.28;5023147;28;20029;-80
2023/05/16 01:24:02;;;;;;;7.28;4.07;;;;;;;13.01;78.63;99892.34;5023185;28;20458;-79
2023/05/16 01:26:29;;;;;;;7.18;3.17;;;;;;;13.04;78.33;99891.78;5023306;28;20022;-80
2023/05/16 01:28:54;;;;;;;7.75;3.35;;;;;;;13.10;77.46;99893.41;5022605;28;20557;-80
2023/05/16 01:31:21;;;;;;;8.65;4.25;;;;;;;13.14;77.86;99897.25;5023237;28;20033;-80
2023/05/16 01:33:47;;;;;;;7.63;3.40;;;;;;;13.12;78.14;99895.91;5022900;28;20287;-80
2023/05/16 01:36:23;;;;;;;7.60;3.22;;;;;;;12.79;78.64;99898.97;5023217;28;20040;-80
2023/05/16 01:39:02;;;;;;;8.25;4.32;;;;;;;12.78;79.22;99898.16;5022674;28;20060;-80
2023/05/16 01:41:39;;;;;;;10.88;4.72;;;;;;;12.90;78.52;99900.59;5023277;28;20045;-82
2023/05/16 01:44:10;;;;;;;8.07;4.15;;;;;;;12.65;79.51;99907.75;5023225;28;20130;-80
2023/05/16 01:46:39;;;;;;;10.23;4.43;;;;;;;12.66;78.84;99909.41;5022933;28;20065;-80
2023/05/16 01:49:25;;;;;;;8.13;4.45;;;;;;;12.71;78.65;99911.31;5022644;28;20057;-80
2023/05/16 01:51:54;;;;;;;6.15;2.80;;;;;;;12.42;79.28;99920.06;5022759;28;20108;-79
2023/05/16 01:54:23;;;;;;;5.35;2.42;;;;;;;12.23;80.01;99917.88;5021272;28;20052;-79
2023/05/16 01:56:52;;;;;;;7.80;2.47;;;;;;;11.88;78.91;99929.25;5023023;28;20851;-83
2023/05/16 01:59:19;;;;;;;11.65;3.42;;;;;;;11.51;79.53;99924.78;5022205;28;20686;-79
2023/05/16 02:01:45;;;;;;;3.75;1.60;;;;;;;11.35;78.75;99932.09;5022792;28;20029;-80
2023/05/16 02:04:12;;;;;;;9.57;2.37;;;;;;;11.41;78.32;99934.56;5020029;28;20108;-79
2023/05/16 02:06:37;;;;;;;8.05;2.10;;;;;;;11.47;77.40;99951.78;5023065;28;20309;-80
2023/05/16 02:09:02;;;;;;;12.63;2.85;;;;;;;11.49;78.16;99946.06;5021879;28;20725;-79
2023/05/16 02:11:27;;;;;;;9.52;1.90;;;;;;;11.49;78.64;99951.53;5022928;28;20041;-80
2023/05/16 02:13:53;;;;;;;8.73;3.00;;;;;;;11.28;77.33;99957.72;5022316;28;20033;-80
2023/05/16 02:16:18;;;;;;;11.97;2.90;;;;;;;11.59;78.00;99948.84;5022205;28;20290;-80
2023/05/16 02:18:44;;;;;;;5.88;2.47;;;;;;;11.61;77.50;99960.34;5021865;28;20786;-80
2023/05/16 02:21:10;;;;;;;8.85;3.03;;;;;;;11.63;77.41;99955.44;5021762;28;20722;-80
2023/05/16 02:23:35;;;;;;;8.40;2.90;;;;;;;11.84;77.32;99965.59;5023445;28;20038;-80
2023/05/16 02:26:00;;;;;;;10.40;2.63;;;;;;;11.90;77.05;99959.03;5021932;28;20687;-80
2023/05/16 02:28:25;;;;;;;6.30;2.17;;;;;;;11.74;76.32;99961.72;5022124;28;20281;-80
2023/05/16 02:31:00;;;;;;;8.83;2.77;;;;;;;11.59;75.74;99965.25;5021986;28;20266;-80
2023/05/16 02:33:27;;;;;;;13.00;2.85;;;;;;;11.62;76.53;99974.78;5022181;28;20250;-80
2023/05/16 02:35:52;;;;;;;11.38;2.72;;;;;;;11.81;76.19;99971.59;5020785;28;20040;-80
2023/05/16 02:38:19;;;;;;;8.10;2.78;;;;;;;11.61;76.16;99973.97;5021404;28;20051;-80
2023/05/16 02:40:48;;;;;;;14.90;3.92;;;;;;;11.79;75.89;99978.16;5021589;28;20030;-80
2023/05/16 02:43:13;;;;;;;8.13;3.45;;;;;;;11.79;75.94;99980.88;5021604;28;21224;-80
2023/05/16 02:45:38;;;;;;;15.18;3.60;;;;;;;11.72;76.19;99983.03;5022139;28;20044;-80
2023/05/16 02:48:04;;;;;;;6.90;2.35;;;;;;;11.59;76.00;99981.63;5021815;28;20105;-80
2023/05/16 02:50:30;;;;;;;15.73;3.60;;;;;;;11.39;77.01;99998.72;5021855;28;20161;-80
2023/05/16 02:52:55;;;;;;;8.38;2.63;;;;;;;11.58;76.74;99995.50;5021615;28;20044;-79
2023/05/16 02:55:20;;;;;;;10.57;3.35;;;;;;;11.33;77.26;100003.31;5021948;28;20562;-80
2023/05/16 02:57:46;;;;;;;12.33;3.30;;;;;;;11.49;77.71;100001.47;5021671;28;20029;-79
2023/05/16 03:00:13;;;;;;;10.35;3.28;;;;;;;11.78;76.65;100005.72;5020985;28;20441;-79
2023/05/16 03:02:38;;;;;;;11.00;3.22;;;;;;;11.67;76.20;100000.19;5021837;28;20072;-80
2023/05/16 03:05:05;;;;;;;15.20;4.20;;;;;;;11.81;75.40;99993.44;5021200;28;20084;-80
2023/05/16 03:07:30;;;;;;;15.43;3.13;;;;;;;11.54;76.07;99998.78;5021416;28;20038;-80
2023/05/16 03:09:55;;;;;;;16.55;3.22;;;;;;;11.64;76.05;99999.91;5020992;28;20044;-80
2023/05/16 03:12:20;;;;;;;17.80;3.73;;;;;;;11.69;75.56;100008.16;5021625;28;20032;-79
2023/05/16 03:14:46;;;;;;;8.33;3.33;;;;;;;11.69;75.89;100013.63;5020741;28;20271;-79
2023/05/16 03:17:11;;;;;;;16.33;3.53;;;;;;;11.71;75.70;100008.72;5021241;28;20270;-80
2023/05/16 03:19:36;;;;;;;7.37;2.77;;;;;;;11.87;75.80;100015.06;5020975;28;20427;-79
2023/05/16 03:22:02;;;;;;;12.45;3.47;;;;;;;11.69;75.66;100021.81;5020988;28;20273;-80
2023/05/16 03:24:28;;;;;;;19.80;3.67;;;;;;;11.88;75.34;100018.59;5021573;28;20029;-79
2023/05/16 03:26:53;;;;;;;11.60;4.25;;;;;;;11.92;75.42;100019.69;5021341;28;20040;-80
2023/05/16 03:29:18;;;;;;;9.70;3.70;;;;;;;11.99;75.49;100020.28;5020645;28;20033;-80
2023/05/16 03:31:43;;;;;;;8.50;4.20;;;;;;;11.93;76.09;100013.16;5021398;28;20029;-79
2023/05/16 03:34:09;;;;;;;13.73;4.33;;;;;;;11.76;75.14;100018.81;5021025;28;20258;-80
2023/05/16 03:36:34;;;;;;;16.25;6.55;;;;;;;11.85;75.09;100021.88;5021118;28;20632;-79
2023/05/16 03:39:00;;;;;;;17.65;4.85;;;;;;;11.60;76.39;100032.41;5020796;28;20075;-79
2023/05/16 03:41:25;;;;;;;14.65;4.97;;;;;;;11.73;76.16;100031.13;5021383;28;20088;-80
2023/05/16 03:43:50;;;;;;;11.40;4.28;;;;;;;11.76;76.78;100036.03;5021176;28;20494;-79
2023/05/16 03:46:15;;;;;;;12.60;4.38;;;;;;;11.52;76.91;100039.19;5021262;28;20038;-80
2023/05/16 03:48:41;;;;;;;13.47;5.13;;;;;;;11.65;76.26;100042.53;5021151;28;20057;-80
2023/05/16 03:51:06;;;;;;;13.63;4.57;;;;;;;11.65;75.98;100040.59;5020751;28;20266;-80
2023/05/16 03:53:32;;;;;;;19.07;4.73;;;;;;;11.72;76.09;100050.47;5021014;28;20353;-80
2023/05/16 03:55:57;;;;;;;13.30;3.53;;;;;;;11.55;75.81;100052.31;5020892;28;20267;-80
2023/05/16 03:58:22;;;;;;;12.93;4.10;;;;;;;11.60;75.45;100053.41;5018930;28;20430;-80
2023/05/16 04:00:47;;;;;;;17.58;4.43;;;;;;;11.65;75.01;100050.72;5020993;28;20285;-80
2023/05/16 04:03:13;;;;;;;10.90;4.13;;;;;;;11.70;74.98;100053.47;5020891;28;20065;-81
2023/05/16 04:05:38;;;;;;;12.18;3.88;;;;;;;11.75;73.65;100056.25;5021114;28;20047;-80
2023/05/16 04:08:03;;;;;;;10.93;3.53;;;;;;;11.28;73.01;100066.88;5020446;28;20036;-80
2023/05/16 04:10:29;;;;;;;9.85;2.78;;;;;;;10.89;76.07;100067.13;5021098;28;20258;-80
2023/05/16 04:12:54;;;;;;;11.82;4.20;;;;;;;10.88;75.29;100071.78;5020853;28;20025;-80
2023/05/16 04:15:20;;;;;;;18.75;5.45;;;;;;;10.67;75.91;100081.66;5020337;28;20159;-80
2023/05/16 04:17:45;;;;;;;30.90;4.85;;;;;;;10.99;75.25;100075.38;5021136;28;21283;-80
2023/05/16 04:20:10;;;;;;;18.17;3.63;;;;;;;11.20;73.44;100090.03;5020119;28;20031;-80
2023/05/16 04:22:36;;;;;;;10.35;3.67;;;;;;;10.98;73.58;100087.41;5021094;28;20044;-80
2023/05/16 04:25:01;;;;;;;8.10;3.77;;;;;;;11.37;73.81;100099.97;5020571;28;20112;-80
2023/05/16 04:27:26;;;;;;;29.33;4.83;;;;;;;11.38;72.40;100084.41;5022577;28;20768;-80
2023/05/16 04:29:51;;;;;;;11.50;2.92;;;;;;;11.16;73.54;100099.81;5023925;28;20290;-80
2023/05/16 04:32:17;;;;;;;12.30;3.90;;;;;;;11.18;73.15;100107.75;5024435;28;20037;-80
2023/05/16 04:34:44;;;;;;;16.55;4.68;;;;;;;11.18;73.68;100105.03;5024604;28;20276;-80
2023/05/16 04:37:09;;;;;;;12.25;3.72;;;;;;;11.40;72.79;100115.84;5039485;28;20055;-80
2023/05/16 04:39:35;;;;;;;7.97;2.78;;;;;;;11.45;72.66;100112.34;5024076;28;20037;-81
2023/05/16 04:42:01;;;;;;;15.82;4.55;;;;;;;11.20;72.55;100121.97;5023947;28;20029;-80
2023/05/16 04:44:26;;;;;;;16.27;3.10;;;;;;;11.26;72.40;100118.19;5024227;28;21204;-80
2023/05/16 04:46:54;;;;;;;16.25;3.35;;;;;;;11.38;71.55;100117.16;5023891;28;20033;-80
2023/05/16 04:49:20;;;;;;;10.55;2.60;;;;;;;11.13;71.86;100124.91;5023403;28;20033;-80
2023/05/16 04:51:46;;;;;;;26.13;5.05;;;;;;;11.06;71.75;100129.75;5022506;28;20475;-80
2023/05/16 04:54:12;;;;;;;23.75;3.75;;;;;;;11.15;72.87;100138.28;5023770;28;20026;-80
2023/05/16 04:56:37;;;;;;;15.03;4.40;;;;;;;11.03;72.07;100128.34;5024164;28;20040;-80
2023/05/16 04:59:03;;;;;;;20.63;4.97;;;;;;;11.03;72.66;100139.28;5023242;28;20792;-80
2023/05/16 05:01:28;;;;;;;18.50;3.92;;;;;;;10.84;73.51;100136.09;5023962;28;20324;-80
2023/05/16 05:03:54;;;;;;;16.02;3.50;;;;;;;10.92;72.91;100141.06;5023698;28;20042;-80
2023/05/16 05:06:19;;;;;;;10.30;3.30;;;;;;;10.98;72.81;100141.97;5023615;28;20048;-80
2023/05/16 05:08:44;;;;;;;13.15;3.85;;;;;;;11.10;72.94;100144.53;5023371;28;20029;-80
2023/05/16 05:11:10;;;;;;;12.13;3.23;;;;;;;11.30;72.01;100140.31;5023313;28;20120;-80
2023/05/16 05:13:35;;;;;;;18.17;4.18;;;;;;;11.20;71.57;100160.16;5023884;28;20258;-80
2023/05/16 05:16:03;;;;;;;19.55;5.68;;;;;;;11.32;71.61;100152.63;5023008;28;20080;-79
2023/05/16 05:18:28;;;;;;;13.05;3.35;;;;;;;11.29;72.48;100160.50;5023758;28;20388;-80
2023/05/16 05:20:54;;;;;;;11.18;3.85;;;;;;;11.39;72.58;100162.50;5023307;28;20056;-80
2023/05/16 05:23:19;;;;;;;13.65;3.55;;;;;;;11.43;71.94;100169.09;5023358;28;20041;-80
2023/05/16 05:25:45;;;;;;;16.38;4.55;;;;;;;11.43;71.84;100175.34;5022878;28;20771;-79
2023/05/16 05:28:10;;;;;;;13.57;4.18;;;;;;;11.28;71.81;100165.16;5022480;28;20033;-80
2023/05/16 05:30:35;;;;;;;12.77;3.38;;;;;;;11.26;72.23;100186.41;5023062;28;20108;-79
2023/05/16 05:33:01;;;;;;;12.98;2.92;;;;;;;11.30;71.60;100182.09;5022881;28;20801;-80
2023/05/16 05:35:26;;;;;;;15.80;3.97;;;;;;;11.11;71.37;100180.78;5023122;28;20046;-80
2023/05/16 05:37:51;;;;;;;18.30;4.13;;;;;;;11.09;72.13;100176.44;5022109;28;20310;-80
2023/05/16 05:40:16;;;;;;;21.07;3.40;;;;;;;11.12;71.64;100186.03;5022814;28;20032;-81
2023/05/16 05:42:42;;;;;;;11.63;4.55;;;;;;;11.26;72.07;100191.88;5022931;28;20750;-80
2023/05/16 05:45:07;;;;;;;12.68;3.03;;;;;;;11.49;71.37;100191.81;5022478;28;20065;-81
2023/05/16 05:47:33;;;;;;;14.25;3.45;;;;;;;11.58;70.38;100195.69;5022409;28;20040;-79
2023/05/16 05:49:58;;;;;;;15.55;4.13;;;;;;;11.50;71.37;100197.00;5022451;28;20060;-80
2023/05/16 05:52:24;;;;;;;16.73;3.53;;;;;;;11.38;69.79;100193.59;5022518;28;20473;-80
2023/05/16 05:54:49;;;;;;;20.80;4.57;;;;;;;11.43;70.27;100199.94;5022721;28;20045;-79
2023/05/16 05:57:15;;;;;;;15.52;3.63;;;;;;;11.64;70.29;100197.38;5023016;28;20037;-81
2023/05/16 05:59:40;;;;;;;13.00;4.18;;;;;;;11.60;70.47;100206.34;5022810;28;20471;-79
2023/05/16 06:02:06;;;;;;;22.30;4.50;;;;;;;11.62;70.57;100201.44;5022530;28;20076;-79
2023/05/16 06:04:31;;;;;;;11.65;3.78;;;;;;;11.53;70.29;100210.13;5022820;28;20263;-79
2023/05/16 06:06:57;;;;;;;13.07;3.17;;;;;;;11.54;69.43;100206.31;5022436;28;20179;-80
2023/05/16 06:09:22;;;;;;;11.00;3.43;;;;;;;11.51;68.79;100214.22;5022718;28;20043;-80
2023/05/16 06:11:48;;;;;;;17.83;3.03;;;;;;;11.36;69.51;100212.97;5023549;28;20258;-80
2023/05/16 06:14:15;;;;;;;12.38;3.05;;;;;;;11.20;69.48;100210.13;5022830;28;20491;-79
2023/05/16 06:16:40;;;;;;;10.70;3.05;;;;;;;11.27;68.96;100209.88;5022762;28;20053;-80
2023/05/16 06:19:06;;;;;;;10.98;3.60;;;;;;;11.04;69.90;100211.88;5022975;28;20052;-80
2023/05/16 06:21:32;;;;;;;17.00;4.80;;;;;;;11.38;69.48;100219.00;5023289;28;20038;-79
2023/05/16 06:23:57;;;;;;;10.30;3.05;;;;;;;11.35;69.26;100224.16;5022737;28;20483;-81
2023/05/16 06:26:23;;;;;;;12.10;3.10;;;;;;;11.55;69.46;100227.06;5022914;28;20113;-79
2023/05/16 06:28:48;;;;;;;12.85;3.40;;;;;;;11.54;68.37;100221.88;5022080;28;20025;-80
2023/05/16 06:31:14;;;;;;;11.23;3.65;;;;;;;11.42;68.86;100222.03;5021914;28;20482;-80
2023/05/16 06:33:39;;;;;;;8.32;2.80;;;;;;;11.39;68.73;100223.38;5022056;28;20030;-80
2023/05/16 06:36:05;;;;;;;8.45;3.05;;;;;;;11.51;69.19;100228.66;5022314;28;20513;-80
2023/05/16 06:38:30;;;;;;;16.48;4.15;;;;;;;11.41;67.95;100231.31;5022158;28;20051;-80
2023/05/16 06:40:55;;;;;;;19.35;3.58;;;;;;;11.49;68.27;100233.56;5022351;28;20514;-80
2023/05/16 06:43:21;;;;;;;14.07;3.43;;;;;;;11.64;68.69;100232.88;5022382;28;20029;-80
2023/05/16 06:45:46;;;;;;;14.73;2.70;;;;;;;11.69;68.46;100232.09;5021761;28;20336;-79
2023/05/16 06:48:13;;;;;;;11.52;2.95;;;;;;;11.73;68.26;100235.97;5021328;28;20033;-79
2023/05/16 06:50:39;;;;;;;11.88;3.08;;;;;;;12.07;67.31;100226.63;5021552;28;20029;-80
2023/05/16 06:53:06;;;;;;;13.15;3.92;;;;;;;12.19;67.29;100218.25;5022067;28;20087;-79
2023/05/16 06:55:31;;;;;;;15.65;4.22;;;;;;;12.22;65.87;100220.47;5022462;28;20040;-79
2023/05/16 06:57:57;;;;;;;8.40;1.55;;;;;;;12.25;64.87;100230.03;5021718;28;20483;-79
2023/05/16 07:00:22;;;;;;;8.83;2.23;;;;;;;12.30;64.68;100229.25;5021868;28;20047;-80
2023/05/16 07:02:47;;;;;;;15.82;3.08;;;;;;;12.16;64.68;100223.44;5021960;28;20262;-80
2023/05/16 07:05:12;;;;;;;4.27;1.73;;;;;;;11.91;63.37;100226.53;5022065;28;20379;-77
2023/05/16 07:07:38;;;;;;;7.20;1.83;;;;;;;11.78;64.85;100230.53;5022267;28;20266;-78
2023/05/16 07:10:03;;;;;;;10.47;2.57;;;;;;;11.44;64.19;100237.09;5021240;28;20780;-77
2023/05/16 07:12:29;;;;;;;13.13;1.95;;;;;;;11.56;64.44;100242.38;5021578;28;20267;-76
2023/05/16 07:14:54;;;;;;;10.20;2.05;;;;;;;11.51;64.45;100242.31;5021612;28;21354;-76
2023/05/16 07:17:19;;;;;;;11.88;1.63;;;;;;;11.59;63.25;100240.22;5021612;28;20498;-76
2023/05/16 07:19:45;;;;;;;7.38;2.08;;;;;;;11.56;63.37;100245.09;5021836;28;20041;-76
2023/05/16 07:22:10;;;;;;;7.35;2.63;;;;;;;11.72;63.11;100245.22;5021475;28;21201;-77
2023/05/16 07:24:36;;;;;;;8.93;3.17;;;;;;;11.97;63.19;100234.75;5020939;28;20037;-77
2023/05/16 07:27:01;;;;;;;11.75;2.75;;;;;;;11.84;62.32;100241.50;5021639;28;20310;-77
2023/05/16 07:29:26;;;;;;;14.23;5.18;;;;;;;12.05;62.64;100244.38;5021594;28;20041;-77
2023/05/16 07:31:52;;;;;;;16.13;2.70;;;;;;;12.43;62.41;100241.59;5021668;28;20167;-76
2023/05/16 07:34:17;;;;;;;12.50;1.60;;;;;;;12.67;61.90;100239.25;5021336;28;20313;-77
2023/05/16 07:36:42;;;;;;;14.45;1.80;;;;;;;12.89;62.91;100241.00;5021522;28;20273;-77
2023/05/16 07:39:07;;;;;;;10.02;2.42;;;;;;;12.96;61.19;100247.03;5020545;28;20684;-77
2023/05/16 07:41:33;;;;;;;7.45;2.25;;;;;;;13.01;61.43;100235.28;5020908;28;20040;-77
2023/05/16 07:43:58;;;;;;;9.57;2.45;;;;;;;13.08;59.97;100240.47;5021318;28;20033;-77
2023/05/16 07:46:24;;;;;;;9.80;1.73;;;;;;;12.93;59.65;100235.81;5021648;28;20867;-77
2023/05/16 07:48:49;;;;;;;9.40;2.35;;;;;;;12.72;57.85;100241.19;5020190;28;20144;-76
2023/05/16 07:51:15;;;;;;;8.52;1.95;;;;;;;12.54;59.54;100246.06;5020563;28;20487;-76
2023/05/16 07:53:40;;;;;;;6.38;1.33;;;;;;;12.38;59.76;100253.34;5020724;28;20080;-76
2023/05/16 07:56:06;;;;;;;12.68;2.72;;;;;;;12.40;58.78;100251.19;5020514;28;20103;-76
2023/05/16 07:58:31;;;;;;;8.77;1.80;;;;;;;12.37;58.69;100258.00;5020440;28;20037;-76
2023/05/16 08:00:57;;;;;;;9.32;1.90;;;;;;;12.63;57.96;100259.22;5020845;28;20143;-71
2023/05/16 08:03:23;;;;;;;9.73;2.03;;;;;;;12.84;58.74;100249.19;5023840;28;20511;-72
2023/05/16 08:05:48;;;;;;;10.77;1.95;;;;;;;12.81;58.50;100252.47;5024614;28;20075;-71
2023/05/16 08:08:13;;;;;;;5.50;2.57;;;;;;;13.15;58.10;100259.41;5023871;28;20124;-71
2023/05/16 08:10:39;;;;;;;10.73;2.65;;;;;;;13.24;57.12;100246.81;5024919;28;20270;-72
2023/05/16 08:13:04;;;;;;;10.13;4.05;;;;;;;13.30;57.13;100243.00;5024085;28;20036;-73
2023/05/16 08:15:29;;;;;;;6.25;2.35;;;;;;;13.49;57.14;100249.84;5024373;28;20049;-78
2023/05/16 08:17:58;;;;;;;8.75;2.15;;;;;;;13.31;54.32;100252.03;5023612;28;20048;-77
2023/05/16 08:20:24;;;;;;;8.82;2.92;;;;;;;13.35;56.01;100252.31;5024574;28;20091;-77
2023/05/16 08:22:50;;;;;;;7.47;1.52;;;;;;;13.41;56.97;100249.31;5024127;28;20036;-76
2023/05/16 08:25:16;;;;;;;9.55;2.88;;;;;;;13.31;55.58;100243.81;5024003;28;20120;-76
2023/05/16 08:27:41;;;;;;;7.68;2.22;;;;;;;13.13;56.54;100250.63;5024373;28;20156;-74
2023/05/16 08:30:07;;;;;;;8.45;1.55;;;;;;;13.45;57.09;100246.03;5023567;28;20033;-78
2023/05/16 08:32:33;;;;;;;11.57;2.42;;;;;;;13.50;55.70;100255.09;5024195;28;20471;-78
2023/05/16 08:34:59;;;;;;;12.15;1.75;;;;;;;13.62;54.27;100248.53;5024142;28;20045;-78
2023/05/16 08:37:24;;;;;;;9.32;2.22;;;;;;;13.29;53.84;100260.53;5023954;28;20040;-77
2023/05/16 08:39:49;;;;;;;6.60;1.85;;;;;;;13.47;53.51;100254.78;5023340;28;20034;-76
2023/05/16 08:42:15;;;;;;;6.07;2.00;;;;;;;12.83;51.63;100262.03;5024386;28;20280;-76
2023/05/16 08:44:40;;;;;;;10.32;1.90;;;;;;;13.26;51.82;100260.25;5024049;28;20270;-77
2023/05/16 08:47:21;;;;;;;8.90;1.43;;;;;;;13.40;49.66;100255.88;5023924;28;20543;-76
2023/05/16 08:49:47;;;;;;;2.65;1.15;;;;;;;13.59;51.21;100246.34;5023651;28;20258;-78
2023/05/16 08:52:17;;;;;;;6.97;2.08;;;;;;;13.85;50.39;100257.31;5023575;28;20481;-77
2023/05/16 08:54:43;;;;;;;15.20;1.50;;;;;;;14.05;50.55;100256.47;5023546;28;20029;-77
2023/05/16 08:57:09;;;;;;;13.70;2.28;;;;;;;13.99;52.30;100249.34;5022847;28;20043;-76
2023/05/16 08:59:34;;;;;;;9.93;2.17;;;;;;;13.56;50.04;100242.25;5023109;28;20059;-77
2023/05/16 09:02:00;;;;;;;5.00;1.10;;;;;;;13.55;49.54;100259.75;5023145;28;20064;-76
2023/05/16 09:04:26;;;;;;;6.93;2.00;;;;;;;13.07;49.68;100258.00;5023543;28;20048;-76
2023/05/16 09:06:51;;;;;;;5.90;0.90;;;;;;;13.38;49.62;100254.53;5023619;28;20124;-77
2023/05/16 09:09:17;;;;;;;3.58;1.67;;;;;;;13.67;49.99;100256.75;5023130;28;20184;-77
2023/05/16 09:11:42;;;;;;;6.60;1.20;;;;;;;14.33;49.58;100247.91;5023669;28;20034;-76
2023/05/16 09:14:07;;;;;;;7.60;2.30;;;;;;;14.34;48.61;100255.03;5022672;28;20074;-78
2023/05/16 09:16:33;;;;;;;5.30;1.05;;;;;;;14.41;49.58;100255.56;5022050;28;20485;-77
2023/05/16 09:18:59;;;;;;;6.22;1.42;;;;;;;14.67;49.20;100250.00;5022871;28;20447;-77
2023/05/16 09:21:30;;;;;;;6.60;1.55;;;;;;;14.46;48.42;100257.50;5021945;28;20479;-76
2023/05/16 09:24:01;;;;;;;5.15;2.78;;;;;;;14.30;48.89;100257.50;5023285;28;20041;-80
2023/05/16 09:26:26;;;;;;;5.45;1.67;;;;;;;14.30;49.34;100260.25;5023129;28;20096;-80
2023/05/16 09:28:54;;;;;;;6.47;1.63;;;;;;;14.40;48.90;100258.59;5022735;28;20037;-81
2023/05/16 09:31:21;;;;;;;5.88;2.50;;;;;;;14.42;49.89;100262.69;5023450;28;20029;-80
2023/05/16 09:33:50;;;;;;;5.95;2.30;;;;;;;14.39;49.19;100245.97;5023298;28;20045;-81
2023/05/16 09:36:15;;;;;;;5.63;2.00;;;;;;;14.33;49.75;100250.66;5023410;28;20103;-81
2023/05/16 09:38:40;;;;;;;5.38;1.83;;;;;;;14.28;48.06;100256.97;5022851;28;20083;-80
2023/05/16 09:41:08;;;;;;;7.18;1.95;;;;;;;14.40;48.99;100248.44;5022789;28;20041;-80
2023/05/16 09:43:38;;;;;;;4.35;1.38;;;;;;;14.51;47.80;100253.88;5022363;28;20152;-81
2023/05/16 09:46:03;;;;;;;7.68;1.35;;;;;;;14.06;46.83;100254.53;5023092;28;20037;-78
2023/05/16 09:48:28;;;;;;;10.45;1.55;;;;;;;14.07;46.63;100254.28;5022310;28;20046;-80
2023/05/16 09:50:53;;;;;;;2.92;1.33;;;;;;;14.22;47.72;100247.09;5021302;28;20124;-79
2023/05/16 09:53:26;;;;;;;5.90;2.13;;;;;;;14.45;47.21;100247.59;5022838;28;20661;-80
2023/05/16 09:56:17;;;;;;;4.78;1.23;;;;;;;15.02;46.89;100247.38;5022748;28;20290;-80
2023/05/16 09:58:44;;;;;;;10.57;2.25;;;;;;;15.29;46.94;100246.13;5019958;28;20050;-79
2023/05/16 10:01:10;;;;;;;5.43;1.50;;;;;;;15.63;46.56;100238.19;5022592;28;20041;-80
2023/05/16 10:03:38;;;;;;;5.07;1.23;;;;;;;16.09;46.21;100236.97;5022393;28;20033;-78
2023/05/16 10:06:05;;;;;;;5.97;1.33;;;;;;;15.94;45.75;100242.59;5022702;28;20057;-75
2023/05/16 10:08:35;;;;;;;3.55;1.08;;;;;;;15.92;46.18;100245.66;5021806;28;20045;-75
2023/05/16 10:11:02;;;;;;;8.05;1.33;;;;;;;16.03;45.97;100243.63;5022341;28;20048;-75
2023/05/16 10:13:29;;;;;;;7.25;2.17;;;;;;;15.76;45.11;100240.25;5021920;28;20418;-74
2023/05/16 10:15:56;;;;;;;8.38;2.38;;;;;;;15.97;44.23;100237.34;5022242;28;20146;-74
2023/05/16 10:18:27;;;;;;;10.05;1.45;;;;;;;16.24;43.73;100246.19;5021597;28;20034;-73
2023/05/16 10:20:55;;;;;;;7.20;1.20;;;;;;;16.04;43.39;100239.78;5021980;28;20156;-72
2023/05/16 10:23:24;;;;;;;8.30;1.88;;;;;;;15.81;45.04;100241.31;5021831;28;20534;-73
2023/05/16 10:25:50;;;;;;;5.78;1.48;;;;;;;16.13;44.89;100239.94;5020745;28;20037;-74
2023/05/16 10:28:16;;;;;;;7.25;1.35;;;;;;;16.24;44.03;100239.84;5021500;28;20041;-74
2023/05/16 10:30:45;;;;;;;6.05;1.27;;;;;;;16.20;43.16;100239.63;5021836;28;20033;-74
2023/05/16 10:33:12;;;;;;;2.60;1.10;;;;;;;16.10;43.36;100235.88;5021719;28;20029;-76
2023/05/16 10:35:38;;;;;;;4.38;1.55;;;;;;;15.92;44.29;100242.91;5021823;28;20372;-75
2023/05/16 10:38:05;;;;;;;4.75;1.23;;;;;;;15.80;44.20;100231.47;5021233;28;20163;-75
2023/05/16 10:40:31;;;;;;;4.70;1.42;;;;;;;15.74;43.21;100238.94;5021857;28;20060;-73
2023/05/16 10:43:01;;;;;;;4.30;1.20;;;;;;;15.74;42.02;100241.69;5021859;28;20451;-73
2023/05/16 10:45:27;;;;;;;18.02;1.70;;;;;;;16.09;42.82;100233.41;5021938;28;20038;-74
2023/05/16 10:47:59;;;;;;;4.53;1.23;;;;;;;16.36;43.65;100237.53;5020787;28;20025;-74
2023/05/16 10:50:32;;;;;;;4.80;1.08;;;;;;;16.37;42.28;100225.41;5021835;28;20036;-74
2023/05/16 10:53:13;;;;;;;9.35;1.33;;;;;;;15.92;44.23;100231.91;5021345;28;20091;-75
2023/05/16 10:55:39;;;;;;;7.93;2.30;;;;;;;15.68;43.39;100229.88;5021317;28;20124;-75
2023/05/16 10:58:04;;;;;;;2.50;1.02;;;;;;;15.66;43.74;100232.13;5020473;28;20033;-74
2023/05/16 11:00:29;;;;;;;3.90;1.27;;;;;;;15.45;44.13;100242.44;5021571;28;20434;-76
2023/05/16 11:03:04;;;;;;;1.15;0.50;;;;;;;15.36;45.26;100244.97;5021090;28;20302;-75
2023/05/16 11:05:30;;;;;;;5.50;1.33;;;;;;;15.28;45.02;100244.47;5021137;28;20129;-74
2023/05/16 11:08:04;;;;;;;4.15;1.63;;;;;;;14.88;45.76;100241.69;5020543;28;20033;-74
2023/05/16 11:10:30;;;;;;;4.75;1.33;;;;;;;14.80;46.25;100237.59;5021198;28;20513;-75
2023/05/16 11:13:02;;;;;;;7.78;1.70;;;;;;;15.36;46.76;100245.81;5021139;28;20033;-74
2023/05/16 11:15:30;;;;;;;5.30;1.75;;;;;;;15.83;45.94;100250.09;5020454;28;20502;-76
2023/05/16 11:18:07;;;;;;;3.08;1.17;;;;;;;16.10;44.70;100246.06;5020690;28;20136;-76
2023/05/16 11:20:35;;;;;;;3.90;0.65;;;;;;;16.65;44.92;100239.38;5021547;28;20051;-75
2023/05/16 11:23:15;;;;;;;5.07;1.23;;;;;;;16.69;45.01;100242.38;5020698;28;20044;-75